Maha Aarti — AVDA — position and weather

sailwx.info

Track history (hours):
 
Tides and Currents Weather Stations Pressure Air Temp Water Temp Dewpoint Dewpoint Depression Visibility Wind Speed Wind Dir Waves Ship Positions

Maha Aarti

Last reported at 2017-Nov-19 08:18 UTC. Time now 2017-Nov-24 12:47 UTC.
Position N 37°21' E 025°55'.

Length 225 m; draft 12.1 m.

Type: Cargo ship. MMSI: 419093500.

Date/timePositionNaut miles runAvg speedWind from/ knotsBaromVisibWave heightAir tempDewpointWater temp
2017-Nov-19 08:18N 37°21' E 025°55'311.3
2017-Nov-19 08:00N 37°24' E 025°52'510.9
2017-Nov-19 07:30N 37°29' E 025°50'712.6
2017-Nov-19 06:56N 37°36' E 025°50'612.3
2017-Nov-19 06:25N 37°42' E 025°50'241 9.4
2017-Nov-18 04:41N 40°56' E 028°54'1 4.2
2017-Nov-18 04:26N 40°57' E 028°55'2 4.6
2017-Nov-18 03:56N 40°58' E 028°58'  
2017-Nov-15 17:04N 45°04' E 036°37'0 0.1
2017-Nov-15 16:58N 45°04' E 036°37'0 0.0
2017-Nov-15 16:25N 45°04' E 036°37'0 0.0
2017-Nov-15 14:16N 45°04' E 036°37'0 0.0
2017-Nov-15 12:13N 45°04' E 036°37'0 0.0
2017-Nov-15 11:58N 45°04' E 036°37'0 0.0
2017-Nov-15 11:19N 45°04' E 036°37'0 0.0
2017-Nov-15 10:10N 45°04' E 036°37'0 0.0
2017-Nov-15 09:58N 45°04' E 036°37'0 0.0
2017-Nov-15 09:25N 45°04' E 036°37'0 0.0
2017-Nov-15 08:55N 45°04' E 036°37'0 0.0
2017-Nov-15 08:16N 45°04' E 036°37'0 0.0
2017-Nov-15 07:37N 45°04' E 036°37'0 0.1
2017-Nov-15 07:28N 45°04' E 036°37'0 0.0
2017-Nov-15 04:16N 45°04' E 036°37'0 0.0
2017-Nov-15 03:55N 45°04' E 036°38'0 0.1
2017-Nov-15 03:22N 45°04' E 036°37'0 0.1
2017-Nov-15 02:46N 45°04' E 036°37'0 0.1
2017-Nov-15 02:22N 45°04' E 036°37'0 0.0
2017-Nov-15 01:52N 45°04' E 036°37'0 0.0
2017-Nov-14 23:46N 45°04' E 036°38'0 0.1
2017-Nov-14 23:23N 45°04' E 036°38'0 0.3
2017-Nov-14 21:43N 45°05' E 036°37'3 0.3
2017-Nov-14 11:13N 45°07' E 036°39'0 0.0
2017-Nov-14 06:25N 45°07' E 036°39'0 0.0
2017-Nov-14 05:55N 45°07' E 036°39'0 0.0
2017-Nov-14 05:28N 45°07' E 036°39'0 0.0
2017-Nov-14 04:55N 45°07' E 036°39'  
2017-Nov-11 20:25N 45°07' E 036°39'1 3.5
2017-Nov-11 20:00N 45°06' E 036°37'2 3.9
2017-Nov-11 19:30N 45°04' E 036°38'0 0.1
2017-Nov-11 17:26N 45°05' E 036°38'0 0.1
2017-Nov-11 16:59N 45°05' E 036°38'0 0.0
2017-Nov-11 16:20N 45°05' E 036°38'0 0.0
2017-Nov-11 15:59N 45°05' E 036°38'0 0.0
2017-Nov-11 15:26N 45°05' E 036°38'0 0.0
2017-Nov-11 14:50N 45°05' E 036°38'0 0.0
2017-Nov-11 14:20N 45°05' E 036°38'0 0.0
2017-Nov-11 13:56N 45°05' E 036°38'0 0.0
2017-Nov-11 13:29N 45°05' E 036°38'0 0.0
2017-Nov-11 12:59N 45°05' E 036°38'0 0.0
2017-Nov-11 12:29N 45°05' E 036°38'0 0.0
2017-Nov-11 11:59N 45°05' E 036°38'0 0.0
2017-Nov-11 11:26N 45°05' E 036°38'0 0.0
2017-Nov-11 10:59N 45°05' E 036°38'0 0.1
2017-Nov-11 10:26N 45°05' E 036°38'0 0.0
2017-Nov-11 09:56N 45°05' E 036°38'0 0.0
2017-Nov-11 09:29N 45°05' E 036°38'0 0.0
2017-Nov-11 08:59N 45°05' E 036°38'0 0.1
2017-Nov-11 08:29N 45°04' E 036°38'0 0.0
2017-Nov-11 07:59N 45°05' E 036°38'0 0.1
2017-Nov-11 07:29N 45°05' E 036°38'0 0.1
2017-Nov-11 06:59N 45°05' E 036°38'0 0.0
2017-Nov-11 06:29N 45°04' E 036°38'0 0.1
2017-Nov-11 05:59N 45°04' E 036°38'0 0.0
2017-Nov-11 05:26N 45°04' E 036°38'0 0.0
2017-Nov-11 04:47N 45°04' E 036°38'0 0.0
2017-Nov-11 04:29N 45°04' E 036°38'0 0.0
2017-Nov-11 03:59N 45°04' E 036°38'0 0.0
2017-Nov-11 03:29N 45°04' E 036°38'0 0.0
2017-Nov-11 02:56N 45°04' E 036°38'0 0.0
2017-Nov-11 02:29N 45°04' E 036°38'0 0.0
2017-Nov-11 01:53N 45°04' E 036°38'0 0.0
2017-Nov-10 23:23N 45°04' E 036°38'0 0.0
2017-Nov-10 22:56N 45°04' E 036°38'0 0.0
2017-Nov-10 22:26N 45°04' E 036°38'0 0.0
2017-Nov-10 21:59N 45°04' E 036°38'0 0.0
2017-Nov-10 20:38N 45°04' E 036°38'0 0.0
2017-Nov-10 20:29N 45°04' E 036°38'0 0.0
2017-Nov-10 19:59N 45°04' E 036°38'0 0.0
2017-Nov-10 19:29N 45°04' E 036°38'0 0.0
2017-Nov-10 18:50N 45°04' E 036°38'0 0.0
2017-Nov-10 17:44N 45°04' E 036°38'0 0.1
2017-Nov-10 17:29N 45°04' E 036°38'0 0.0
2017-Nov-10 16:56N 45°04' E 036°38'0 0.0
2017-Nov-10 16:29N 45°04' E 036°38'0 0.0
2017-Nov-10 15:59N 45°04' E 036°38'0 0.0
2017-Nov-10 14:41N 45°04' E 036°38'0 0.1
2017-Nov-10 14:29N 45°04' E 036°38'0 0.0
2017-Nov-10 13:59N 45°04' E 036°38'0 0.0
2017-Nov-10 13:20N 45°04' E 036°38'0 0.0
2017-Nov-10 12:59N 45°04' E 036°38'0 0.0
2017-Nov-10 12:23N 45°04' E 036°38'0 0.0
2017-Nov-10 11:56N 45°04' E 036°38'0 0.0
2017-Nov-10 11:26N 45°04' E 036°38'0 0.1
2017-Nov-10 10:56N 45°04' E 036°38'0 0.0
2017-Nov-10 10:17N 45°04' E 036°38'0 0.1
2017-Nov-10 09:56N 45°04' E 036°38'0 0.0
2017-Nov-10 09:29N 45°04' E 036°38'0 0.0
2017-Nov-10 08:59N 45°04' E 036°38'0 0.1
2017-Nov-10 08:23N 45°04' E 036°38'0 0.0
2017-Nov-10 07:59N 45°04' E 036°38'0 0.0
2017-Nov-10 07:26N 45°04' E 036°38'0 0.0
2017-Nov-10 06:59N 45°04' E 036°38'0 0.0
2017-Nov-10 06:29N 45°04' E 036°38'0 0.0
2017-Nov-10 05:59N 45°04' E 036°38'0 0.0
2017-Nov-10 05:29N 45°04' E 036°38'0 0.1
2017-Nov-10 04:59N 45°04' E 036°38'0 0.1
2017-Nov-10 04:29N 45°04' E 036°38'0 0.0
2017-Nov-10 03:59N 45°04' E 036°38'0 0.0
2017-Nov-10 03:29N 45°04' E 036°38'0 0.0
2017-Nov-10 02:59N 45°04' E 036°38'0 0.0
2017-Nov-10 02:29N 45°04' E 036°38'0 0.0
2017-Nov-10 01:59N 45°04' E 036°38'0 0.0
2017-Nov-10 01:29N 45°04' E 036°38'0 0.1
2017-Nov-10 00:59N 45°04' E 036°38'0 0.1
2017-Nov-10 00:29N 45°04' E 036°38'0 0.1
2017-Nov-09 23:59N 45°04' E 036°38'0 0.1
2017-Nov-09 23:29N 45°04' E 036°38'0 0.0
2017-Nov-09 22:56N 45°04' E 036°38'0 0.0
2017-Nov-09 22:29N 45°04' E 036°38'0 0.0
2017-Nov-09 21:59N 45°04' E 036°38'0 0.0
2017-Nov-09 21:29N 45°04' E 036°38'0 0.0
2017-Nov-09 20:56N 45°04' E 036°38'0 0.0
2017-Nov-09 20:29N 45°04' E 036°38'0 0.0
2017-Nov-09 19:59N 45°04' E 036°38'0 0.0
2017-Nov-09 19:26N 45°04' E 036°38'0 0.0
2017-Nov-09 18:59N 45°04' E 036°38'0 0.0
2017-Nov-09 18:29N 45°04' E 036°38'0 0.0
2017-Nov-09 17:59N 45°04' E 036°38'0 0.0
2017-Nov-09 17:29N 45°04' E 036°38'0 0.0
2017-Nov-09 16:59N 45°04' E 036°38'0 0.0
2017-Nov-09 16:29N 45°04' E 036°38'0 0.0
2017-Nov-09 15:59N 45°04' E 036°38'0 0.1
2017-Nov-09 15:29N 45°04' E 036°38'0 0.0
2017-Nov-09 14:56N 45°04' E 036°38'0 0.0
2017-Nov-09 14:29N 45°04' E 036°38'0 0.0
2017-Nov-09 13:59N 45°04' E 036°38'0 0.0
2017-Nov-09 13:29N 45°04' E 036°38'0 0.1
2017-Nov-09 12:59N 45°04' E 036°38'0 0.0
2017-Nov-09 12:29N 45°04' E 036°38'0 0.0
2017-Nov-09 11:59N 45°04' E 036°38'0 0.0
2017-Nov-09 11:26N 45°04' E 036°38'0 0.0
2017-Nov-09 10:50N 45°04' E 036°38'0 0.0
2017-Nov-09 10:26N 45°04' E 036°38'0 0.0
2017-Nov-09 09:59N 45°04' E 036°38'0 0.0
2017-Nov-09 09:29N 45°04' E 036°38'0 0.1
2017-Nov-09 08:59N 45°04' E 036°38'0 0.0
2017-Nov-09 08:29N 45°04' E 036°38'  
Track history (hours):
 
Tides and Currents Weather Stations Pressure Air Temp Water Temp Dewpoint Dewpoint Depression Visibility Wind Speed Wind Dir Waves Ship Positions

Maha Aarti

Last reported at 2017-Nov-19 08:18 UTC. Time now 2017-Nov-24 12:47 UTC.
Position N 37°21' E 025°55'.

Length 225 m; draft 12.1 m.

Type: Cargo ship. MMSI: 419093500.

Date/timePositionNaut miles runAvg speedWind from/ knotsBaromVisibWave heightAir tempDewpointWater temp
2017-Nov-19 08:18N 37°21' E 025°55'311.3
2017-Nov-19 08:00N 37°24' E 025°52'510.9
2017-Nov-19 07:30N 37°29' E 025°50'712.6
2017-Nov-19 06:56N 37°36' E 025°50'612.3
2017-Nov-19 06:25N 37°42' E 025°50'241 9.4
2017-Nov-18 04:41N 40°56' E 028°54'1 4.2
2017-Nov-18 04:26N 40°57' E 028°55'2 4.6
2017-Nov-18 03:56N 40°58' E 028°58'  
2017-Nov-15 17:04N 45°04' E 036°37'0 0.1
2017-Nov-15 16:58N 45°04' E 036°37'0 0.0
2017-Nov-15 16:25N 45°04' E 036°37'0 0.0
2017-Nov-15 14:16N 45°04' E 036°37'0 0.0
2017-Nov-15 12:13N 45°04' E 036°37'0 0.0
2017-Nov-15 11:58N 45°04' E 036°37'0 0.0
2017-Nov-15 11:19N 45°04' E 036°37'0 0.0
2017-Nov-15 10:10N 45°04' E 036°37'0 0.0
2017-Nov-15 09:58N 45°04' E 036°37'0 0.0
2017-Nov-15 09:25N 45°04' E 036°37'0 0.0
2017-Nov-15 08:55N 45°04' E 036°37'0 0.0
2017-Nov-15 08:16N 45°04' E 036°37'0 0.0
2017-Nov-15 07:37N 45°04' E 036°37'0 0.1
2017-Nov-15 07:28N 45°04' E 036°37'0 0.0
2017-Nov-15 04:16N 45°04' E 036°37'0 0.0
2017-Nov-15 03:55N 45°04' E 036°38'0 0.1
2017-Nov-15 03:22N 45°04' E 036°37'0 0.1
2017-Nov-15 02:46N 45°04' E 036°37'0 0.1
2017-Nov-15 02:22N 45°04' E 036°37'0 0.0
2017-Nov-15 01:52N 45°04' E 036°37'0 0.0
2017-Nov-14 23:46N 45°04' E 036°38'0 0.1
2017-Nov-14 23:23N 45°04' E 036°38'0 0.3
2017-Nov-14 21:43N 45°05' E 036°37'3 0.3
2017-Nov-14 11:13N 45°07' E 036°39'0 0.0
2017-Nov-14 06:25N 45°07' E 036°39'0 0.0
2017-Nov-14 05:55N 45°07' E 036°39'0 0.0
2017-Nov-14 05:28N 45°07' E 036°39'0 0.0
2017-Nov-14 04:55N 45°07' E 036°39'  
2017-Nov-11 20:25N 45°07' E 036°39'1 3.5
2017-Nov-11 20:00N 45°06' E 036°37'2 3.9
2017-Nov-11 19:30N 45°04' E 036°38'0 0.1
2017-Nov-11 17:26N 45°05' E 036°38'0 0.1
2017-Nov-11 16:59N 45°05' E 036°38'0 0.0
2017-Nov-11 16:20N 45°05' E 036°38'0 0.0
2017-Nov-11 15:59N 45°05' E 036°38'0 0.0
2017-Nov-11 15:26N 45°05' E 036°38'0 0.0
2017-Nov-11 14:50N 45°05' E 036°38'0 0.0
2017-Nov-11 14:20N 45°05' E 036°38'0 0.0
2017-Nov-11 13:56N 45°05' E 036°38'0 0.0
2017-Nov-11 13:29N 45°05' E 036°38'0 0.0
2017-Nov-11 12:59N 45°05' E 036°38'0 0.0
2017-Nov-11 12:29N 45°05' E 036°38'0 0.0
2017-Nov-11 11:59N 45°05' E 036°38'0 0.0
2017-Nov-11 11:26N 45°05' E 036°38'0 0.0
2017-Nov-11 10:59N 45°05' E 036°38'0 0.1
2017-Nov-11 10:26N 45°05' E 036°38'0 0.0
2017-Nov-11 09:56N 45°05' E 036°38'0 0.0
2017-Nov-11 09:29N 45°05' E 036°38'0 0.0
2017-Nov-11 08:59N 45°05' E 036°38'0 0.1
2017-Nov-11 08:29N 45°04' E 036°38'0 0.0
2017-Nov-11 07:59N 45°05' E 036°38'0 0.1
2017-Nov-11 07:29N 45°05' E 036°38'0 0.1
2017-Nov-11 06:59N 45°05' E 036°38'0 0.0
2017-Nov-11 06:29N 45°04' E 036°38'0 0.1
2017-Nov-11 05:59N 45°04' E 036°38'0 0.0
2017-Nov-11 05:26N 45°04' E 036°38'0 0.0
2017-Nov-11 04:47N 45°04' E 036°38'0 0.0
2017-Nov-11 04:29N 45°04' E 036°38'0 0.0
2017-Nov-11 03:59N 45°04' E 036°38'0 0.0
2017-Nov-11 03:29N 45°04' E 036°38'0 0.0
2017-Nov-11 02:56N 45°04' E 036°38'0 0.0
2017-Nov-11 02:29N 45°04' E 036°38'0 0.0
2017-Nov-11 01:53N 45°04' E 036°38'0 0.0
2017-Nov-10 23:23N 45°04' E 036°38'0 0.0
2017-Nov-10 22:56N 45°04' E 036°38'0 0.0
2017-Nov-10 22:26N 45°04' E 036°38'0 0.0
2017-Nov-10 21:59N 45°04' E 036°38'0 0.0
2017-Nov-10 20:38N 45°04' E 036°38'0 0.0
2017-Nov-10 20:29N 45°04' E 036°38'0 0.0
2017-Nov-10 19:59N 45°04' E 036°38'0 0.0
2017-Nov-10 19:29N 45°04' E 036°38'0 0.0
2017-Nov-10 18:50N 45°04' E 036°38'0 0.0
2017-Nov-10 17:44N 45°04' E 036°38'0 0.1
2017-Nov-10 17:29N 45°04' E 036°38'0 0.0
2017-Nov-10 16:56N 45°04' E 036°38'0 0.0
2017-Nov-10 16:29N 45°04' E 036°38'0 0.0
2017-Nov-10 15:59N 45°04' E 036°38'0 0.0
2017-Nov-10 14:41N 45°04' E 036°38'0 0.1
2017-Nov-10 14:29N 45°04' E 036°38'0 0.0
2017-Nov-10 13:59N 45°04' E 036°38'0 0.0
2017-Nov-10 13:20N 45°04' E 036°38'0 0.0
2017-Nov-10 12:59N 45°04' E 036°38'0 0.0
2017-Nov-10 12:23N 45°04' E 036°38'0 0.0
2017-Nov-10 11:56N 45°04' E 036°38'0 0.0
2017-Nov-10 11:26N 45°04' E 036°38'0 0.1
2017-Nov-10 10:56N 45°04' E 036°38'0 0.0
2017-Nov-10 10:17N 45°04' E 036°38'0 0.1
2017-Nov-10 09:56N 45°04' E 036°38'0 0.0
2017-Nov-10 09:29N 45°04' E 036°38'0 0.0
2017-Nov-10 08:59N 45°04' E 036°38'0 0.1
2017-Nov-10 08:23N 45°04' E 036°38'0 0.0
2017-Nov-10 07:59N 45°04' E 036°38'0 0.0
2017-Nov-10 07:26N 45°04' E 036°38'0 0.0
2017-Nov-10 06:59N 45°04' E 036°38'0 0.0
2017-Nov-10 06:29N 45°04' E 036°38'0 0.0
2017-Nov-10 05:59N 45°04' E 036°38'0 0.0
2017-Nov-10 05:29N 45°04' E 036°38'0 0.1
2017-Nov-10 04:59N 45°04' E 036°38'0 0.1
2017-Nov-10 04:29N 45°04' E 036°38'0 0.0
2017-Nov-10 03:59N 45°04' E 036°38'0 0.0
2017-Nov-10 03:29N 45°04' E 036°38'0 0.0
2017-Nov-10 02:59N 45°04' E 036°38'0 0.0
2017-Nov-10 02:29N 45°04' E 036°38'0 0.0
2017-Nov-10 01:59N 45°04' E 036°38'0 0.0
2017-Nov-10 01:29N 45°04' E 036°38'0 0.1
2017-Nov-10 00:59N 45°04' E 036°38'0 0.1
2017-Nov-10 00:29N 45°04' E 036°38'0 0.1
2017-Nov-09 23:59N 45°04' E 036°38'0 0.1
2017-Nov-09 23:29N 45°04' E 036°38'0 0.0
2017-Nov-09 22:56N 45°04' E 036°38'0 0.0
2017-Nov-09 22:29N 45°04' E 036°38'0 0.0
2017-Nov-09 21:59N 45°04' E 036°38'0 0.0
2017-Nov-09 21:29N 45°04' E 036°38'0 0.0
2017-Nov-09 20:56N 45°04' E 036°38'0 0.0
2017-Nov-09 20:29N 45°04' E 036°38'0 0.0
2017-Nov-09 19:59N 45°04' E 036°38'0 0.0
2017-Nov-09 19:26N 45°04' E 036°38'0 0.0
2017-Nov-09 18:59N 45°04' E 036°38'0 0.0
2017-Nov-09 18:29N 45°04' E 036°38'0 0.0
2017-Nov-09 17:59N 45°04' E 036°38'0 0.0
2017-Nov-09 17:29N 45°04' E 036°38'0 0.0
2017-Nov-09 16:59N 45°04' E 036°38'0 0.0
2017-Nov-09 16:29N 45°04' E 036°38'0 0.0
2017-Nov-09 15:59N 45°04' E 036°38'0 0.1
2017-Nov-09 15:29N 45°04' E 036°38'0 0.0
2017-Nov-09 14:56N 45°04' E 036°38'0 0.0
2017-Nov-09 14:29N 45°04' E 036°38'0 0.0
2017-Nov-09 13:59N 45°04' E 036°38'0 0.0
2017-Nov-09 13:29N 45°04' E 036°38'0 0.1
2017-Nov-09 12:59N 45°04' E 036°38'0 0.0
2017-Nov-09 12:29N 45°04' E 036°38'0 0.0
2017-Nov-09 11:59N 45°04' E 036°38'0 0.0
2017-Nov-09 11:26N 45°04' E 036°38'0 0.0
2017-Nov-09 10:50N 45°04' E 036°38'0 0.0
2017-Nov-09 10:26N 45°04' E 036°38'0 0.0
2017-Nov-09 09:59N 45°04' E 036°38'0 0.0
2017-Nov-09 09:29N 45°04' E 036°38'0 0.1
2017-Nov-09 08:59N 45°04' E 036°38'0 0.0
2017-Nov-09 08:29N 45°04' E 036°38'  

Dump ship's entire track history